Time;durP1;ratioP1;P1;durP2;ratioP2;P2;SDS_P1;SDS_P2;PMS_P1;PMS_P2;Temp;Humidity;BMP_temperature;BMP_pressure;BME280_temperature;BME280_humidity;BME280_pressure;Samples;Min_cycle;Max_cycle;Signal;HPM_P1;HPM_P2
2023/06/26 00:01:08;;;;;;;7.07;6.38;;;21.60;99.90;;;;;;5043138;28;20436;-64
2023/06/26 00:03:46;;;;;;;10.45;6.38;;;21.60;99.90;;;;;;5027566;28;20302;-65
2023/06/26 00:06:13;;;;;;;9.00;5.88;;;21.60;99.90;;;;;;5023924;28;20232;-64
2023/06/26 00:08:41;;;;;;;8.77;6.30;;;;;;;;;;5052751;28;20233;-64
2023/06/26 00:11:14;;;;;;;6.93;6.30;;;;;;;;;;5039651;28;20211;-64
2023/06/26 00:13:41;;;;;;;8.63;6.60;;;21.50;99.90;;;;;;5017146;28;20220;-65
2023/06/26 00:16:10;;;;;;;10.10;5.80;;;21.40;99.90;;;;;;5044731;28;20205;-65
2023/06/26 00:18:39;;;;;;;6.75;6.13;;;;;;;;;;5045683;28;20196;-65
2023/06/26 00:21:09;;;;;;;8.07;6.15;;;21.30;99.90;;;;;;5014107;28;20583;-65
2023/06/26 00:23:39;;;;;;;6.82;5.90;;;21.30;99.90;;;;;;5039867;28;20302;-65
2023/06/26 00:26:10;;;;;;;7.55;5.82;;;21.30;99.90;;;;;;5027690;28;20607;-65
2023/06/26 00:28:37;;;;;;;6.53;5.82;;;;;;;;;;5042299;28;20773;-65
2023/06/26 00:31:05;;;;;;;7.30;5.97;;;;;;;;;;5017805;28;20288;-65
2023/06/26 00:33:33;;;;;;;9.07;6.05;;;21.30;99.90;;;;;;5032180;28;20200;-64
2023/06/26 00:36:03;;;;;;;10.52;6.55;;;21.20;99.90;;;;;;5028300;28;20549;-64
2023/06/26 00:38:30;;;;;;;9.35;6.50;;;;;;;;;;5006220;28;20306;-65
2023/06/26 00:40:58;;;;;;;8.15;6.80;;;;;;;;;;5043831;28;20220;-65
2023/06/26 00:43:26;;;;;;;7.32;6.55;;;21.10;99.90;;;;;;5039497;28;20250;-65
2023/06/26 00:45:54;;;;;;;7.25;6.32;;;21.10;99.90;;;;;;5032973;28;20358;-65
2023/06/26 00:48:22;;;;;;;8.88;6.45;;;21.10;99.90;;;;;;5017339;28;20234;-65
2023/06/26 00:50:52;;;;;;;7.30;6.15;;;21.10;99.90;;;;;;5030109;28;20205;-65
2023/06/26 00:53:23;;;;;;;9.23;6.22;;;21.10;99.90;;;;;;5008392;28;20310;-65
2023/06/26 00:55:53;;;;;;;11.40;6.78;;;21.10;99.90;;;;;;5042307;28;20321;-64
2023/06/26 00:58:22;;;;;;;7.93;6.00;;;21.10;99.90;;;;;;5043902;28;20838;-65
2023/06/26 01:00:51;;;;;;;8.07;6.57;;;;;;;;;;5033175;28;21522;-65
2023/06/26 01:03:25;;;;;;;7.25;6.35;;;21.30;99.90;;;;;;5030521;28;20196;-64
2023/06/26 01:05:55;;;;;;;7.03;6.32;;;21.00;99.90;;;;;;5026082;28;20869;-65
2023/06/26 01:08:28;;;;;;;9.73;7.07;;;;;;;;;;5006132;28;20845;-65
2023/06/26 01:10:55;;;;;;;7.20;6.15;;;;;;;;;;5044562;28;20205;-65
2023/06/26 01:13:23;;;;;;;8.60;6.95;;;;;;;;;;5042154;28;21003;-64
2023/06/26 01:15:53;;;;;;;6.90;6.20;;;20.90;99.90;;;;;;5046450;28;20204;-64
2023/06/26 01:18:21;;;;;;;10.55;6.80;;;20.90;99.90;;;;;;5036435;28;20680;-64
2023/06/26 01:20:49;;;;;;;9.10;6.55;;;20.90;99.90;;;;;;5038395;28;20232;-65
2023/06/26 01:23:24;;;;;;;7.38;6.50;;;20.80;99.90;;;;;;5028274;28;20212;-65
2023/06/26 01:29:10;;;;;;;7.72;6.88;;;20.80;99.90;;;;;;5076793;27;20694;-65
2023/06/26 01:31:38;;;;;;;7.97;6.05;;;20.90;99.90;;;;;;5062991;28;20203;-65
2023/06/26 01:34:06;;;;;;;11.38;6.38;;;20.90;99.90;;;;;;5072320;28;20272;-65
2023/06/26 01:36:34;;;;;;;7.65;6.38;;;;;;;;;;5071182;28;20316;-64
2023/06/26 01:39:01;;;;;;;8.55;6.63;;;20.80;99.90;;;;;;5033698;28;20593;-65
2023/06/26 01:41:29;;;;;;;11.23;7.18;;;;;;;;;;5077329;28;20200;-65
2023/06/26 01:44:15;;;;;;;7.78;6.40;;;20.70;99.90;;;;;;5077886;28;20192;-65
2023/06/26 01:46:55;;;;;;;10.43;6.60;;;20.70;99.90;;;;;;5061431;28;21103;-64
2023/06/26 01:49:30;;;;;;;11.07;6.93;;;20.70;99.90;;;;;;5071886;28;20227;-64
2023/06/26 01:52:04;;;;;;;9.32;6.60;;;20.70;99.90;;;;;;5075955;28;20195;-65
2023/06/26 01:54:38;;;;;;;9.10;7.07;;;20.60;99.90;;;;;;5044053;28;20207;-65
2023/06/26 01:57:06;;;;;;;8.50;6.53;;;20.60;99.90;;;;;;5078598;28;20191;-64
2023/06/26 01:59:35;;;;;;;9.23;7.20;;;20.60;99.90;;;;;;5076131;28;20213;-65
2023/06/26 02:02:03;;;;;;;12.07;7.18;;;;;;;;;;5079895;28;20630;-65
2023/06/26 02:04:31;;;;;;;12.80;7.55;;;20.60;99.90;;;;;;5062969;28;20197;-65
2023/06/26 02:06:59;;;;;;;9.73;6.82;;;20.60;99.90;;;;;;5059141;28;20207;-65
2023/06/26 02:09:26;;;;;;;9.05;7.10;;;;;;;;;;5060149;28;20221;-65
2023/06/26 02:11:54;;;;;;;12.20;7.07;;;20.50;99.90;;;;;;5035871;28;20220;-65
2023/06/26 02:14:21;;;;;;;8.90;6.05;;;20.60;99.90;;;;;;5079372;28;20204;-65
2023/06/26 02:16:52;;;;;;;11.63;6.50;;;20.50;99.90;;;;;;5070698;28;20323;-64
2023/06/26 02:19:21;;;;;;;8.57;6.68;;;20.50;99.90;;;;;;5052569;28;20727;-64
2023/06/26 02:21:49;;;;;;;7.25;6.22;;;20.50;99.90;;;;;;5066204;28;21035;-65
2023/06/26 02:24:20;;;;;;;8.23;6.38;;;;;;;;;;5047596;28;20254;-65
2023/06/26 02:26:53;;;;;;;8.23;7.03;;;20.50;99.90;;;;;;5041887;28;20218;-64
2023/06/26 02:29:22;;;;;;;9.45;6.88;;;20.40;99.90;;;;;;5078628;28;20204;-65
2023/06/26 02:31:52;;;;;;;9.32;7.07;;;;;;;;;;5076778;28;20203;-65
2023/06/26 02:34:22;;;;;;;8.55;6.38;;;;;;;;;;5050130;28;20234;-65
2023/06/26 02:36:49;;;;;;;10.02;6.55;;;20.40;99.90;;;;;;5074683;28;20207;-65
2023/06/26 02:39:18;;;;;;;7.82;6.88;;;;;;;;;;5057388;28;20200;-64
2023/06/26 02:41:47;;;;;;;11.35;7.75;;;20.40;99.90;;;;;;5025587;28;20564;-65
2023/06/26 02:44:14;;;;;;;9.70;6.80;;;20.40;99.90;;;;;;5063482;28;20208;-65
2023/06/26 02:46:43;;;;;;;9.88;6.47;;;;;;;;;;5059849;28;20200;-64
2023/06/26 02:49:11;;;;;;;10.02;6.75;;;;;;;;;;5049671;28;20296;-64
2023/06/26 02:51:39;;;;;;;9.18;6.72;;;;;;;;;;5061728;28;20610;-65
2023/06/26 02:54:13;;;;;;;18.50;7.57;;;20.50;99.90;;;;;;5063658;28;20208;-64
2023/06/26 02:56:42;;;;;;;9.40;6.72;;;20.50;99.90;;;;;;5019740;28;21735;-65
2023/06/26 02:59:10;;;;;;;8.02;6.78;;;20.40;99.90;;;;;;5059038;28;20208;-65
2023/06/26 03:01:37;;;;;;;10.60;6.90;;;;;;;;;;5051527;28;20202;-64
2023/06/26 03:04:05;;;;;;;12.30;7.47;;;;;;;;;;5046766;28;20211;-65
2023/06/26 03:06:34;;;;;;;10.73;7.80;;;;;;;;;;5059417;28;20244;-65
2023/06/26 03:09:03;;;;;;;13.65;7.47;;;20.50;99.90;;;;;;5066441;28;20262;-65
2023/06/26 03:11:33;;;;;;;13.93;7.47;;;20.40;99.90;;;;;;5044106;28;20429;-65
2023/06/26 03:14:01;;;;;;;7.40;6.57;;;20.40;99.90;;;;;;5028810;28;20648;-65
2023/06/26 03:16:28;;;;;;;8.07;7.25;;;20.40;99.90;;;;;;5059119;28;20200;-65
2023/06/26 03:18:56;;;;;;;7.60;6.78;;;19.30;99.90;;;;;;5059485;28;20299;-65
2023/06/26 03:21:24;;;;;;;9.35;6.70;;;20.40;99.90;;;;;;5036544;28;20217;-65
2023/06/26 03:23:53;;;;;;;7.35;6.60;;;20.50;99.90;;;;;;5061269;28;20196;-65
2023/06/26 03:26:28;;;;;;;8.75;6.93;;;;;;;;;;5046278;28;20209;-65
2023/06/26 03:28:56;;;;;;;9.93;7.10;;;20.60;99.90;;;;;;5026249;28;20369;-65
2023/06/26 03:31:26;;;;;;;11.32;6.93;;;20.50;99.90;;;;;;5059504;28;20924;-65
2023/06/26 03:33:55;;;;;;;8.75;7.07;;;20.50;99.90;;;;;;5057367;28;20210;-65
2023/06/26 03:36:23;;;;;;;12.50;7.55;;;20.50;99.90;;;;;;5045722;28;20205;-64
2023/06/26 03:38:51;;;;;;;10.82;6.43;;;;;;;;;;5055312;28;20208;-64
2023/06/26 03:41:19;;;;;;;7.75;6.72;;;20.40;99.90;;;;;;5051161;28;20204;-65
2023/06/26 03:43:50;;;;;;;10.20;7.35;;;;;;;;;;5027821;28;20200;-65
2023/06/26 03:46:17;;;;;;;17.58;7.45;;;;;;;;;;5056874;28;20213;-64
2023/06/26 03:48:47;;;;;;;10.65;7.32;;;20.50;99.90;;;;;;5047020;28;20228;-65
2023/06/26 03:51:17;;;;;;;8.23;7.30;;;20.50;99.90;;;;;;5039938;28;20215;-64
2023/06/26 03:53:44;;;;;;;8.45;6.95;;;20.50;99.90;;;;;;5022155;28;20204;-64
2023/06/26 03:56:11;;;;;;;9.27;6.80;;;20.50;99.90;;;;;;5038520;22;20751;-65
2023/06/26 03:58:40;;;;;;;7.68;6.38;;;20.50;99.90;;;;;;4997221;28;20227;-65
2023/06/26 04:01:07;;;;;;;7.65;6.90;;;;;;;;;;5029401;28;20868;-65
2023/06/26 04:03:35;;;;;;;8.38;6.80;;;20.50;99.90;;;;;;5012057;28;20200;-65
2023/06/26 04:06:02;;;;;;;10.55;6.65;;;20.60;99.90;;;;;;5043037;28;20222;-64
2023/06/26 04:08:30;;;;;;;12.70;7.18;;;;;;;;;;5021905;28;20627;-65
2023/06/26 04:10:58;;;;;;;7.68;6.47;;;;;;;;;;5043317;28;20205;-65
2023/06/26 04:13:33;;;;;;;8.90;6.95;;;20.70;99.90;;;;;;5017464;28;20196;-65
2023/06/26 04:16:02;;;;;;;7.93;6.70;;;;;;;;;;5029460;28;20672;-64
2023/06/26 04:18:30;;;;;;;9.10;6.38;;;20.80;99.90;;;;;;5034028;28;20223;-65
2023/06/26 04:21:07;;;;;;;10.10;7.22;;;20.90;99.90;;;;;;5037604;28;20650;-64
2023/06/26 04:23:35;;;;;;;13.02;6.43;;;20.80;99.90;;;;;;5021462;28;20192;-65
2023/06/26 04:26:06;;;;;;;10.43;6.97;;;21.00;99.90;;;;;;5037086;28;20198;-65
2023/06/26 04:28:46;;;;;;;14.52;7.60;;;20.90;99.90;;;;;;5007691;28;20955;-65
2023/06/26 04:31:15;;;;;;;10.70;6.68;;;21.00;99.90;;;;;;5041097;28;20746;-65
2023/06/26 04:33:45;;;;;;;9.15;6.47;;;21.00;99.90;;;;;;5012653;28;20212;-65
2023/06/26 04:36:12;;;;;;;8.90;6.60;;;21.10;99.90;;;;;;5029308;28;20297;-65
2023/06/26 04:38:42;;;;;;;9.98;7.43;;;21.10;99.90;;;;;;5030350;28;20423;-64
2023/06/26 04:41:10;;;;;;;9.27;6.40;;;;;;;;;;5030677;28;20197;-65
2023/06/26 04:43:40;;;;;;;8.73;6.38;;;21.20;99.90;;;;;;5034211;28;20201;-65
2023/06/26 04:48:45;;;;;;;12.02;6.65;;;21.30;99.90;;;;;;5169883;22;21062;-65
2023/06/26 04:51:13;;;;;;;9.52;6.38;;;21.30;99.90;;;;;;5014540;28;20249;-64
2023/06/26 04:53:40;;;;;;;10.00;5.82;;;21.30;99.90;;;;;;4996479;28;20369;-64
2023/06/26 04:56:09;;;;;;;9.45;6.85;;;;;;;;;;5005688;28;20427;-65
2023/06/26 04:58:36;;;;;;;11.50;6.70;;;21.60;99.90;;;;;;4982313;28;20985;-65
2023/06/26 05:01:10;;;;;;;10.13;6.57;;;21.50;99.90;;;;;;4961573;28;21118;-65
2023/06/26 05:03:43;;;;;;;10.45;6.40;;;21.50;99.90;;;;;;4976639;28;20213;-64
2023/06/26 05:06:13;;;;;;;8.05;6.70;;;21.60;99.90;;;;;;4980080;28;20267;-64
2023/06/26 05:08:42;;;;;;;9.40;6.25;;;;;;;;;;4997959;28;20226;-64
2023/06/26 05:11:09;;;;;;;12.98;6.57;;;;;;;;;;4991023;28;20657;-64
2023/06/26 05:13:37;;;;;;;6.85;6.15;;;21.60;99.90;;;;;;4992629;28;20642;-64
2023/06/26 05:16:28;;;;;;;9.93;6.30;;;21.60;99.90;;;;;;4993850;28;20229;-65
2023/06/26 05:18:55;;;;;;;7.38;5.32;;;21.80;99.90;;;;;;4994308;28;20545;-65
2023/06/26 05:21:29;;;;;;;6.63;5.90;;;21.80;99.90;;;;;;4978556;28;22168;-65
2023/06/26 05:23:58;;;;;;;7.30;5.78;;;21.80;99.90;;;;;;4988162;28;20232;-65
2023/06/26 05:26:28;;;;;;;8.82;5.50;;;21.90;99.90;;;;;;4984885;28;20737;-65
2023/06/26 05:31:35;;;;;;;8.70;5.93;;;22.00;99.90;;;;;;4934802;28;20260;-64
2023/06/26 05:34:08;;;;;;;6.45;5.75;;;;;;;;;;4947133;28;20892;-64
2023/06/26 05:36:37;;;;;;;6.40;5.63;;;22.00;99.90;;;;;;4952791;28;20214;-64
2023/06/26 05:39:04;;;;;;;6.00;5.47;;;;;;;;;;4978063;28;20207;-64
2023/06/26 05:41:46;;;;;;;10.02;5.50;;;22.10;99.90;;;;;;4964053;28;21565;-64
2023/06/26 05:44:14;;;;;;;8.15;5.97;;;22.20;99.90;;;;;;4968230;28;20229;-64
2023/06/26 05:46:43;;;;;;;7.85;6.47;;;22.20;99.90;;;;;;4986485;28;20293;-64
2023/06/26 05:49:11;;;;;;;6.53;5.82;;;;;;;;;;4954489;28;20379;-64
2023/06/26 05:51:41;;;;;;;6.20;5.60;;;22.10;99.90;;;;;;4945752;28;20213;-64
2023/06/26 05:54:08;;;;;;;6.57;5.72;;;;;;;;;;4976391;28;20206;-64
2023/06/26 05:56:36;;;;;;;6.47;5.88;;;;;;;;;;4984331;28;20290;-64
2023/06/26 05:59:05;;;;;;;8.95;5.82;;;;;;;;;;4980669;28;20239;-64
2023/06/26 06:01:35;;;;;;;8.73;5.22;;;;;;;;;;4983005;28;20207;-64
2023/06/26 06:04:04;;;;;;;6.10;5.50;;;22.90;99.90;;;;;;4911145;28;20211;-65
2023/06/26 06:06:31;;;;;;;7.60;5.85;;;22.30;99.90;;;;;;4958939;28;21120;-64
2023/06/26 06:09:03;;;;;;;6.20;5.60;;;22.30;99.90;;;;;;4941227;28;20227;-64
2023/06/26 06:11:31;;;;;;;8.32;5.90;;;;;;;;;;4980991;28;20198;-64
2023/06/26 06:13:59;;;;;;;10.80;6.22;;;;;;;;;;4974501;28;20658;-64
2023/06/26 06:16:28;;;;;;;10.02;6.70;;;;;;;;;;4978155;28;20715;-64
2023/06/26 06:18:56;;;;;;;6.97;5.63;;;22.50;99.90;;;;;;4942899;28;20860;-63
2023/06/26 06:21:23;;;;;;;7.18;5.85;;;22.40;99.90;;;;;;4980401;28;20238;-64
2023/06/26 06:26:25;;;;;;;6.60;5.97;;;22.60;99.90;;;;;;5031675;22;20327;-64
2023/06/26 06:28:52;;;;;;;7.43;6.72;;;22.70;99.90;;;;;;5041051;28;20220;-64
2023/06/26 06:31:20;;;;;;;9.43;5.75;;;;;;;;;;5036844;28;20972;-64
2023/06/26 06:34:04;;;;;;;11.27;6.80;;;22.80;99.90;;;;;;5028858;28;20229;-64
2023/06/26 06:36:33;;;;;;;8.50;6.90;;;22.80;99.90;;;;;;5038703;28;20196;-64
2023/06/26 06:39:06;;;;;;;10.27;7.00;;;23.00;99.90;;;;;;5018805;28;20201;-65
2023/06/26 06:41:35;;;;;;;7.93;7.13;;;;;;;;;;5025966;28;21017;-64
2023/06/26 06:44:05;;;;;;;10.00;7.53;;;21.90;99.90;;;;;;5040979;28;20636;-64
2023/06/26 06:46:33;;;;;;;11.20;8.32;;;23.00;99.90;;;;;;5046049;28;20209;-64
2023/06/26 06:49:04;;;;;;;13.63;9.00;;;;;;;;;;5045733;28;20279;-64
2023/06/26 06:51:31;;;;;;;9.50;8.13;;;;;;;;;;5012384;28;20212;-64
2023/06/26 06:54:07;;;;;;;9.10;7.97;;;23.10;99.90;;;;;;5017286;28;20233;-64
2023/06/26 06:56:36;;;;;;;8.07;7.20;;;23.20;99.90;;;;;;5040544;28;20231;-64
2023/06/26 06:59:03;;;;;;;8.77;7.03;;;23.30;99.90;;;;;;5021646;28;20216;-64
2023/06/26 07:01:30;;;;;;;8.95;8.05;;;23.30;99.90;;;;;;5039780;28;20215;-64
2023/06/26 07:03:57;;;;;;;8.02;7.00;;;23.40;99.90;;;;;;5041208;28;21099;-64
2023/06/26 07:06:24;;;;;;;9.18;8.27;;;23.40;99.90;;;;;;5013599;28;20300;-64
2023/06/26 07:08:51;;;;;;;11.55;7.88;;;23.40;99.90;;;;;;5037769;28;20220;-65
2023/06/26 07:11:18;;;;;;;11.07;7.72;;;23.40;99.90;;;;;;5034790;28;20200;-64
2023/06/26 07:13:46;;;;;;;11.68;9.05;;;23.50;99.90;;;;;;5033316;28;20208;-64
2023/06/26 07:16:14;;;;;;;10.35;6.88;;;23.60;99.90;;;;;;5044649;28;20204;-65
2023/06/26 07:18:41;;;;;;;10.32;6.82;;;23.60;99.90;;;;;;5043168;28;20375;-64
2023/06/26 07:21:08;;;;;;;8.57;6.60;;;23.70;99.90;;;;;;5015449;28;20484;-64
2023/06/26 07:23:35;;;;;;;9.70;6.63;;;23.70;99.90;;;;;;5043229;28;20678;-64
2023/06/26 07:26:02;;;;;;;7.95;7.00;;;24.00;99.90;;;;;;5019123;28;20232;-64
2023/06/26 07:28:28;;;;;;;11.23;7.28;;;23.80;99.90;;;;;;5046078;28;20208;-64
2023/06/26 07:30:56;;;;;;;7.97;6.97;;;23.80;99.90;;;;;;5032689;28;20197;-64
2023/06/26 07:33:23;;;;;;;9.02;7.82;;;23.80;99.90;;;;;;5045706;28;20202;-64
2023/06/26 07:35:50;;;;;;;12.20;7.40;;;23.60;99.90;;;;;;5041804;28;20200;-64
2023/06/26 07:38:17;;;;;;;9.27;7.60;;;23.60;99.90;;;;;;5013078;28;20213;-64
2023/06/26 07:40:43;;;;;;;13.52;8.40;;;23.60;99.90;;;;;;5029233;28;20200;-64
2023/06/26 07:43:10;;;;;;;13.48;8.18;;;23.60;99.90;;;;;;5036560;28;20200;-65
2023/06/26 07:45:37;;;;;;;17.30;7.75;;;23.60;99.90;;;;;;5033262;28;20204;-64
2023/06/26 07:48:08;;;;;;;10.57;7.57;;;23.60;99.90;;;;;;5047988;28;20861;-65
2023/06/26 07:50:35;;;;;;;14.40;8.63;;;23.60;99.90;;;;;;5051537;28;20220;-64
2023/06/26 07:53:02;;;;;;;9.55;7.95;;;23.30;99.90;;;;;;5017941;28;20209;-64
2023/06/26 07:55:29;;;;;;;10.98;8.27;;;23.30;99.90;;;;;;5037613;28;20208;-64
2023/06/26 07:57:56;;;;;;;9.93;7.90;;;23.20;99.90;;;;;;5040143;28;20212;-65
2023/06/26 08:00:22;;;;;;;9.65;7.80;;;23.20;99.90;;;;;;5037031;28;20285;-64
2023/06/26 08:02:49;;;;;;;11.80;7.88;;;23.30;99.90;;;;;;5043639;28;20225;-64
2023/06/26 08:05:17;;;;;;;13.00;7.65;;;23.10;99.90;;;;;;5041517;28;20205;-64
2023/06/26 08:07:44;;;;;;;14.25;8.32;;;22.80;99.90;;;;;;5032693;28;22558;-64
2023/06/26 08:10:11;;;;;;;31.58;9.68;;;22.60;99.90;;;;;;4995792;28;20272;-65
2023/06/26 08:12:40;;;;;;;24.50;10.40;;;22.40;99.90;;;;;;5031497;28;20232;-66
2023/06/26 08:15:07;;;;;;;20.88;9.82;;;21.50;99.90;;;;;;5025955;28;20290;-65
2023/06/26 08:17:35;;;;;;;17.95;10.52;;;21.50;99.90;;;;;;5042078;28;20850;-68
2023/06/26 08:20:02;;;;;;;13.10;10.52;;;21.20;99.90;;;;;;5031194;28;20608;-69
2023/06/26 08:22:30;;;;;;;14.52;10.35;;;21.20;99.90;;;;;;5037927;28;20240;-68
2023/06/26 08:24:57;;;;;;;14.57;9.80;;;20.90;99.90;;;;;;5002335;28;20713;-69
2023/06/26 08:27:24;;;;;;;16.50;10.50;;;21.00;99.90;;;;;;5026917;28;20208;-68
2023/06/26 08:29:51;;;;;;;17.10;10.95;;;20.90;99.90;;;;;;5034404;28;20239;-68
2023/06/26 08:32:17;;;;;;;19.55;11.75;;;20.70;99.90;;;;;;5015856;28;20310;-68
2023/06/26 08:34:44;;;;;;;16.98;11.35;;;20.60;99.90;;;;;;5034853;28;20193;-68
2023/06/26 08:37:11;;;;;;;21.50;12.52;;;20.50;99.90;;;;;;5037668;28;20200;-67
2023/06/26 08:39:39;;;;;;;17.88;11.48;;;20.50;99.90;;;;;;5032021;28;20203;-68
2023/06/26 08:42:06;;;;;;;15.95;11.85;;;20.30;99.90;;;;;;4980771;28;20205;-68
2023/06/26 08:44:33;;;;;;;11.50;10.23;;;20.30;99.90;;;;;;5024717;28;20212;-68
2023/06/26 08:47:01;;;;;;;13.23;10.10;;;20.30;99.90;;;;;;5019190;28;21161;-68
2023/06/26 08:49:35;;;;;;;13.32;8.93;;;20.30;99.90;;;;;;5031733;28;20536;-68
2023/06/26 08:52:07;;;;;;;12.63;8.80;;;20.40;99.90;;;;;;5030305;28;21144;-68
2023/06/26 08:54:39;;;;;;;13.77;8.00;;;20.40;99.90;;;;;;5037107;28;21391;-68
2023/06/26 08:57:08;;;;;;;10.82;6.85;;;20.40;99.90;;;;;;4999331;28;20442;-68
2023/06/26 08:59:35;;;;;;;11.35;6.88;;;20.50;99.90;;;;;;5025777;28;20340;-68
2023/06/26 09:02:02;;;;;;;14.98;5.93;;;20.40;99.90;;;;;;5022218;28;21638;-68
2023/06/26 09:04:29;;;;;;;16.33;6.80;;;20.50;99.90;;;;;;5017475;28;20461;-69
2023/06/26 09:06:56;;;;;;;9.88;5.03;;;20.60;99.90;;;;;;5035572;28;20205;-68
2023/06/26 09:09:23;;;;;;;8.25;5.40;;;20.50;99.90;;;;;;5028707;28;20315;-68
2023/06/26 09:11:50;;;;;;;10.77;4.53;;;20.90;99.90;;;;;;5012008;28;20545;-69
2023/06/26 09:14:18;;;;;;;9.70;3.58;;;20.80;99.90;;;;;;5025499;28;20341;-68
2023/06/26 09:16:46;;;;;;;10.27;4.20;;;20.80;99.90;;;;;;5031443;28;20193;-68
2023/06/26 09:19:14;;;;;;;9.73;3.72;;;20.80;99.90;;;;;;5024879;28;20457;-69
2023/06/26 09:21:41;;;;;;;10.38;3.80;;;21.00;99.90;;;;;;5032804;28;20241;-68
2023/06/26 09:24:09;;;;;;;8.10;3.78;;;20.90;99.90;;;;;;5028126;28;22947;-68
2023/06/26 09:26:37;;;;;;;10.60;3.38;;;21.10;99.90;;;;;;5036059;28;20319;-68
2023/06/26 09:29:04;;;;;;;7.35;2.85;;;21.20;99.90;;;;;;5013076;28;20330;-68
2023/06/26 09:31:34;;;;;;;6.38;2.65;;;21.50;99.90;;;;;;5032181;28;20225;-68
2023/06/26 09:34:01;;;;;;;5.55;2.28;;;21.50;99.90;;;;;;5023933;28;20508;-68
2023/06/26 09:36:32;;;;;;;5.55;2.10;;;21.40;99.90;;;;;;5041754;28;21111;-68
2023/06/26 09:39:00;;;;;;;4.95;2.35;;;21.50;99.90;;;;;;5024379;28;20855;-68
2023/06/26 09:41:28;;;;;;;4.82;2.40;;;21.50;99.90;;;;;;5034085;28;20212;-68
2023/06/26 09:43:56;;;;;;;6.40;2.42;;;21.80;99.90;;;;;;5000073;28;20228;-68
2023/06/26 09:46:27;;;;;;;6.38;2.28;;;21.60;99.90;;;;;;5025415;28;20231;-68
2023/06/26 09:49:02;;;;;;;5.50;2.13;;;21.60;99.90;;;;;;5022822;28;20201;-68
2023/06/26 09:51:31;;;;;;;4.18;1.95;;;21.60;99.90;;;;;;5028525;28;20432;-68
2023/06/26 09:53:58;;;;;;;3.58;1.80;;;21.70;99.90;;;;;;5039306;28;20273;-68
2023/06/26 09:56:25;;;;;;;6.00;2.10;;;21.90;99.90;;;;;;5040634;28;20751;-68
2023/06/26 09:58:52;;;;;;;6.05;1.92;;;22.10;99.90;;;;;;5005709;28;20202;-68
2023/06/26 10:01:19;;;;;;;7.25;2.17;;;22.30;99.90;;;;;;5028135;28;20205;-68
2023/06/26 10:03:46;;;;;;;4.93;1.77;;;22.50;99.90;;;;;;5035531;28;20676;-68
2023/06/26 10:06:16;;;;;;;4.57;1.42;;;22.60;99.90;;;;;;5036652;28;20686;-68
2023/06/26 10:08:43;;;;;;;6.55;1.80;;;22.70;99.90;;;;;;5038826;28;20198;-68
2023/06/26 10:11:15;;;;;;;9.00;2.15;;;22.70;99.90;;;;;;5035197;28;20807;-68
2023/06/26 10:13:46;;;;;;;3.75;1.88;;;22.70;99.90;;;;;;5000841;28;20235;-68
2023/06/26 10:16:14;;;;;;;6.15;1.73;;;22.60;99.90;;;;;;5029353;28;20224;-68
2023/06/26 10:18:41;;;;;;;5.28;1.98;;;22.40;99.90;;;;;;5018391;28;20422;-67
2023/06/26 10:21:09;;;;;;;8.10;1.88;;;22.20;99.90;;;;;;5008388;28;20260;-67
2023/06/26 10:23:39;;;;;;;2.53;1.70;;;22.20;99.90;;;;;;5032200;28;20193;-67
2023/06/26 10:26:09;;;;;;;2.88;1.58;;;22.10;99.90;;;;;;5038912;28;20241;-67
2023/06/26 10:28:37;;;;;;;7.60;4.00;;;22.10;99.90;;;;;;5013974;28;20213;-67
2023/06/26 10:31:06;;;;;;;5.13;1.50;;;22.00;99.90;;;;;;5004083;28;20788;-67
2023/06/26 10:33:34;;;;;;;3.13;1.50;;;21.90;99.90;;;;;;5020820;28;20201;-67
2023/06/26 10:36:15;;;;;;;3.50;1.48;;;21.90;99.90;;;;;;5018528;28;20220;-68
2023/06/26 10:38:54;;;;;;;1.92;1.60;;;21.80;99.90;;;;;;5023860;28;20575;-67
2023/06/26 10:41:22;;;;;;;4.60;1.73;;;21.70;99.90;;;;;;5037373;28;20217;-67
2023/06/26 10:43:51;;;;;;;5.50;1.60;;;21.60;99.90;;;;;;5018960;28;20293;-67
2023/06/26 10:46:19;;;;;;;5.72;1.73;;;21.70;99.90;;;;;;5006852;28;20225;-67
2023/06/26 10:48:59;;;;;;;8.10;2.20;;;21.70;99.90;;;;;;5048947;28;20192;-67
2023/06/26 10:51:26;;;;;;;2.78;1.50;;;22.00;99.90;;;;;;5025415;28;20747;-67
2023/06/26 10:53:56;;;;;;;6.53;2.05;;;22.20;99.90;;;;;;5041207;28;20229;-67
2023/06/26 10:56:42;;;;;;;7.88;1.65;;;22.20;99.90;;;;;;5044673;28;20526;-67
2023/06/26 10:59:17;;;;;;;7.45;2.25;;;22.30;99.90;;;;;;5030934;28;20938;-67
2023/06/26 11:01:45;;;;;;;4.88;1.75;;;22.40;99.90;;;;;;5011110;28;20212;-67
2023/06/26 11:04:14;;;;;;;10.02;1.70;;;22.20;99.90;;;;;;5034016;28;20919;-66
2023/06/26 11:06:41;;;;;;;3.42;1.95;;;22.10;99.90;;;;;;5033751;28;20224;-67
2023/06/26 11:09:14;;;;;;;2.63;1.90;;;22.20;99.90;;;;;;5026761;28;20433;-66
2023/06/26 11:14:42;;;;;;;2.63;1.48;;;22.30;99.90;;;;;;5022304;28;20205;-66
2023/06/26 11:17:10;;;;;;;5.22;1.73;;;22.40;99.90;;;;;;5014449;28;20228;-66
2023/06/26 11:19:37;;;;;;;4.88;1.42;;;22.40;99.90;;;;;;5045280;28;20256;-66
2023/06/26 11:22:06;;;;;;;6.03;2.10;;;22.50;99.90;;;;;;5031662;28;20213;-67
2023/06/26 11:24:34;;;;;;;6.40;1.63;;;22.50;99.90;;;;;;5043372;28;20225;-66
2023/06/26 11:27:03;;;;;;;5.30;1.70;;;22.40;99.90;;;;;;5012518;28;20247;-66
2023/06/26 11:29:30;;;;;;;4.30;1.75;;;22.30;99.90;;;;;;5026215;28;20200;-67
2023/06/26 11:32:02;;;;;;;3.58;1.90;;;22.30;99.90;;;;;;5008988;28;20270;-66
2023/06/26 11:34:31;;;;;;;3.83;1.65;;;22.40;99.90;;;;;;5037582;28;20271;-66
2023/06/26 11:37:01;;;;;;;11.63;1.98;;;22.10;99.90;;;;;;5030978;28;20208;-65
2023/06/26 11:39:27;;;;;;;3.38;1.50;;;22.10;99.90;;;;;;5034068;28;20303;-66
2023/06/26 11:41:56;;;;;;;2.45;1.60;;;22.10;99.90;;;;;;5025134;28;20216;-65
2023/06/26 11:44:23;;;;;;;2.85;1.50;;;22.20;99.90;;;;;;5006233;28;20235;-65
2023/06/26 11:46:54;;;;;;;4.43;1.85;;;22.10;99.90;;;;;;4986845;28;21378;-64
2023/06/26 11:49:23;;;;;;;7.25;1.60;;;21.40;99.90;;;;;;5037439;28;20285;-64
2023/06/26 11:51:50;;;;;;;6.15;1.88;;;22.40;99.90;;;;;;5044201;28;20303;-64
2023/06/26 11:54:23;;;;;;;2.53;1.63;;;22.20;99.90;;;;;;5028194;28;20335;-64
2023/06/26 11:56:53;;;;;;;5.70;2.08;;;22.20;99.90;;;;;;5038160;28;20202;-64
2023/06/26 11:59:22;;;;;;;4.38;1.75;;;22.40;99.90;;;;;;5033738;28;20199;-65
2023/06/26 12:01:51;;;;;;;4.57;2.30;;;22.40;99.90;;;;;;5005784;28;20227;-64
2023/06/26 12:04:19;;;;;;;4.55;1.52;;;22.60;99.90;;;;;;5039936;28;20204;-64
2023/06/26 12:06:48;;;;;;;2.97;1.67;;;22.60;99.90;;;;;;5040518;28;20189;-64
2023/06/26 12:09:15;;;;;;;5.63;1.83;;;22.40;99.90;;;;;;5026054;28;21104;-64
2023/06/26 12:11:44;;;;;;;5.38;2.10;;;22.20;99.90;;;;;;5037689;28;20229;-65
2023/06/26 12:14:12;;;;;;;2.17;1.52;;;22.20;99.90;;;;;;5037341;28;20197;-64
2023/06/26 12:16:40;;;;;;;5.45;1.65;;;22.10;99.90;;;;;;5022587;28;20204;-64
2023/06/26 12:19:09;;;;;;;3.85;1.73;;;22.10;99.90;;;;;;5009214;28;20201;-64
2023/06/26 12:21:56;;;;;;;3.22;1.67;;;22.40;99.90;;;;;;5038582;28;20203;-64
2023/06/26 12:24:25;;;;;;;4.63;1.80;;;22.20;99.90;;;;;;5029815;28;20236;-64
2023/06/26 12:26:55;;;;;;;3.90;1.77;;;22.20;99.90;;;;;;5037038;28;20377;-64
2023/06/26 12:29:29;;;;;;;3.75;2.05;;;22.20;99.90;;;;;;5039474;28;20201;-64
2023/06/26 12:31:57;;;;;;;2.97;1.70;;;22.10;99.90;;;;;;5032409;28;20221;-64
2023/06/26 12:34:29;;;;;;;4.65;2.05;;;21.90;99.90;;;;;;5000305;28;20212;-64
2023/06/26 12:37:01;;;;;;;4.20;1.90;;;21.80;99.90;;;;;;5037567;28;20201;-64
2023/06/26 12:39:28;;;;;;;2.92;1.95;;;21.60;99.90;;;;;;5030465;28;20201;-64
2023/06/26 12:41:56;;;;;;;4.28;1.52;;;21.60;99.90;;;;;;5038106;28;20205;-64
2023/06/26 12:44:26;;;;;;;4.90;1.80;;;21.80;99.90;;;;;;5035577;28;20202;-65
2023/06/26 12:46:58;;;;;;;3.53;1.92;;;21.90;99.90;;;;;;5039341;28;20573;-64
2023/06/26 12:49:33;;;;;;;3.63;2.08;;;21.80;99.90;;;;;;4999650;28;20550;-65
2023/06/26 12:52:00;;;;;;;3.88;2.00;;;21.60;99.90;;;;;;5036620;28;20799;-64
2023/06/26 12:54:27;;;;;;;4.43;1.73;;;21.60;99.90;;;;;;5027233;28;20209;-65
2023/06/26 12:56:54;;;;;;;3.58;1.77;;;21.60;99.90;;;;;;5037884;28;20212;-64
2023/06/26 12:59:21;;;;;;;5.43;2.08;;;22.00;99.90;;;;;;5039612;28;20201;-64
2023/06/26 13:01:48;;;;;;;5.65;1.80;;;22.30;99.90;;;;;;5030266;28;21000;-64
2023/06/26 13:04:17;;;;;;;4.60;1.88;;;22.50;99.90;;;;;;5011910;28;20346;-64
2023/06/26 13:06:44;;;;;;;7.07;2.10;;;22.50;99.90;;;;;;5002788;28;20579;-64
2023/06/26 13:09:11;;;;;;;3.95;1.80;;;22.70;99.90;;;;;;5014124;28;20204;-64
2023/06/26 13:11:38;;;;;;;6.50;2.10;;;22.50;99.90;;;;;;5010010;28;20228;-64
2023/06/26 13:14:05;;;;;;;4.10;1.73;;;22.40;99.90;;;;;;5018119;28;23980;-65
2023/06/26 13:16:32;;;;;;;1.65;1.42;;;22.40;99.90;;;;;;5023934;28;20540;-65
2023/06/26 13:19:00;;;;;;;2.35;1.80;;;22.30;99.90;;;;;;5039129;28;20197;-64
2023/06/26 13:21:28;;;;;;;4.10;1.80;;;21.20;99.90;;;;;;4985301;28;20663;-64
2023/06/26 13:23:56;;;;;;;2.40;1.55;;;22.20;99.90;;;;;;5028094;28;20309;-65